createdAt,value
2019-03-28T00:01:42.707Z,100.00
2019-03-28T00:04:11.208Z,100.00
2019-03-28T00:06:39.877Z,100.00
2019-03-28T00:09:09.232Z,100.00
2019-03-28T00:11:40.698Z,100.00
2019-03-28T00:14:09.256Z,100.00
2019-03-28T00:16:37.862Z,99.44
2019-03-28T00:19:06.437Z,100.00
2019-03-28T00:21:34.926Z,97.80
2019-03-28T00:24:10.989Z,92.89
2019-03-28T00:26:39.664Z,94.75
2019-03-28T00:29:08.216Z,93.49
2019-03-28T00:31:36.827Z,94.55
2019-03-28T00:34:08.143Z,99.14
2019-03-28T00:36:36.761Z,100.00
2019-03-28T00:39:07.198Z,100.00
2019-03-28T00:41:35.845Z,100.00
2019-03-28T00:44:04.477Z,100.00
2019-03-28T00:46:33.051Z,100.00
2019-03-28T00:49:01.684Z,100.00
2019-03-28T00:51:30.330Z,99.65
2019-03-28T00:53:58.961Z,98.65
2019-03-28T00:56:27.664Z,99.09
2019-03-28T00:58:56.277Z,97.93
2019-03-28T01:01:24.835Z,97.26
2019-03-28T01:03:53.513Z,95.06
2019-03-28T01:06:22.144Z,97.29
2019-03-28T01:08:50.708Z,97.70
2019-03-28T01:11:19.310Z,98.15
2019-03-28T01:13:48.014Z,100.00
2019-03-28T01:16:16.703Z,100.00
2019-03-28T01:18:45.482Z,100.00
2019-03-28T01:21:14.136Z,100.00
2019-03-28T01:23:42.745Z,100.00
2019-03-28T01:26:11.378Z,100.00
2019-03-28T01:28:40.050Z,100.00
2019-03-28T01:31:08.619Z,100.00
2019-03-28T01:33:37.190Z,100.00
2019-03-28T01:36:05.885Z,100.00
2019-03-28T01:38:34.454Z,100.00
2019-03-28T01:41:03.014Z,100.00
2019-03-28T01:43:31.660Z,100.00
2019-03-28T01:46:00.304Z,100.00
2019-03-28T01:48:31.625Z,100.00
2019-03-28T01:51:00.263Z,100.00
2019-03-28T01:53:28.962Z,100.00
2019-03-28T01:55:57.567Z,100.00
2019-03-28T01:58:26.122Z,100.00
2019-03-28T02:00:54.804Z,100.00
2019-03-28T02:03:23.478Z,100.00
2019-03-28T02:05:52.045Z,100.00
2019-03-28T02:08:20.716Z,100.00
2019-03-28T02:10:49.553Z,100.00
2019-03-28T02:13:19.611Z,100.00
2019-03-28T02:15:48.172Z,100.00
2019-03-28T02:18:16.772Z,100.00
2019-03-28T02:20:45.423Z,100.00
2019-03-28T02:23:14.051Z,100.00
2019-03-28T02:25:43.432Z,100.00
2019-03-28T02:28:12.086Z,100.00
2019-03-28T02:30:40.716Z,100.00
2019-03-28T02:33:09.329Z,100.00
2019-03-28T02:35:37.973Z,100.00
2019-03-28T02:38:06.569Z,100.00
2019-03-28T02:40:35.207Z,100.00
2019-03-28T02:43:03.891Z,100.00
2019-03-28T02:45:32.522Z,100.00
2019-03-28T02:48:01.776Z,100.00
2019-03-28T02:50:30.685Z,100.00
2019-03-28T02:52:59.226Z,100.00
2019-03-28T02:55:27.894Z,100.00
2019-03-28T02:57:56.446Z,100.00
2019-03-28T03:00:25.088Z,100.00
2019-03-28T03:02:53.658Z,100.00
2019-03-28T03:05:22.287Z,100.00
2019-03-28T03:07:50.962Z,100.00
2019-03-28T03:10:19.653Z,100.00
2019-03-28T03:12:48.296Z,100.00
2019-03-28T03:15:16.926Z,100.00
2019-03-28T03:17:45.597Z,100.00
2019-03-28T03:20:14.429Z,100.00
2019-03-28T03:22:43.034Z,100.00
2019-03-28T03:25:11.671Z,100.00
2019-03-28T03:27:56.363Z,100.00
2019-03-28T03:30:10.807Z,100.00
2019-03-28T03:32:39.398Z,100.00
2019-03-28T03:35:08.500Z,100.00
2019-03-28T03:37:37.081Z,100.00
2019-03-28T03:40:08.467Z,100.00
2019-03-28T03:42:37.128Z,100.00
2019-03-28T03:45:09.060Z,100.00
2019-03-28T03:47:38.177Z,100.00
2019-03-28T03:50:07.531Z,100.00
2019-03-28T03:52:36.128Z,100.00
2019-03-28T03:55:06.570Z,100.00
2019-03-28T03:57:35.156Z,100.00
2019-03-28T04:00:05.752Z,100.00
2019-03-28T04:02:34.427Z,100.00
2019-03-28T04:05:02.998Z,100.00
2019-03-28T04:07:31.712Z,100.00
2019-03-28T04:10:00.594Z,100.00
2019-03-28T04:12:29.259Z,100.00
2019-03-28T04:14:57.943Z,100.00
2019-03-28T04:17:26.507Z,100.00
2019-03-28T04:19:58.770Z,100.00
2019-03-28T04:22:27.567Z,100.00
2019-03-28T04:24:56.205Z,100.00
2019-03-28T04:27:24.780Z,100.00
2019-03-28T04:29:53.465Z,100.00
2019-03-28T04:32:22.086Z,100.00
2019-03-28T04:34:50.768Z,100.00
2019-03-28T04:37:19.382Z,100.00
2019-03-28T04:39:48.058Z,100.00
2019-03-28T04:42:16.706Z,100.00
2019-03-28T04:44:45.265Z,100.00
2019-03-28T04:47:13.777Z,100.00
2019-03-28T04:49:42.337Z,100.00
2019-03-28T04:52:11.011Z,100.00
2019-03-28T04:54:39.509Z,100.00
2019-03-28T04:57:08.035Z,100.00
2019-03-28T04:59:36.529Z,100.00
2019-03-28T05:02:05.427Z,100.00
2019-03-28T05:04:34.020Z,100.00
2019-03-28T05:07:02.570Z,100.00
2019-03-28T05:09:31.997Z,100.00
2019-03-28T05:12:00.670Z,100.00
2019-03-28T05:14:29.232Z,100.00
2019-03-28T05:16:57.845Z,100.00
2019-03-28T05:19:26.442Z,100.00
2019-03-28T05:21:55.074Z,100.00
2019-03-28T05:24:25.481Z,100.00
2019-03-28T05:26:54.171Z,100.00
2019-03-28T05:29:22.799Z,100.00
2019-03-28T05:31:51.450Z,100.00
2019-03-28T05:34:19.968Z,100.00
2019-03-28T05:36:51.920Z,100.00
2019-03-28T05:39:19.653Z,100.00
2019-03-28T05:41:48.555Z,100.00
2019-03-28T05:44:17.110Z,100.00
2019-03-28T05:46:45.781Z,100.00
2019-03-28T05:49:14.453Z,100.00
2019-03-28T05:51:42.943Z,100.00
2019-03-28T05:54:11.468Z,100.00
2019-03-28T05:56:40.094Z,100.00
2019-03-28T05:59:11.210Z,100.00
2019-03-28T06:01:39.115Z,100.00
2019-03-28T06:04:08.367Z,100.00
2019-03-28T06:06:37.036Z,100.00
2019-03-28T06:09:07.581Z,100.00
2019-03-28T06:11:42.548Z,100.00
2019-03-28T06:14:11.325Z,99.60
2019-03-28T06:16:43.530Z,99.23
2019-03-28T06:19:12.422Z,99.28
2019-03-28T06:21:44.006Z,100.00
2019-03-28T06:24:14.362Z,100.00
2019-03-28T06:26:43.314Z,96.25
2019-03-28T06:29:23.166Z,95.63
2019-03-28T06:31:54.581Z,92.68
2019-03-28T06:34:13.063Z,90.07
2019-03-28T06:36:44.748Z,89.95
2019-03-28T06:39:21.810Z,88.94
2019-03-28T06:41:50.922Z,86.40
2019-03-28T06:44:19.762Z,85.73
2019-03-28T06:46:48.437Z,84.47
2019-03-28T06:49:17.170Z,84.46
2019-03-28T06:51:45.799Z,80.09
2019-03-28T06:54:16.006Z,83.06
2019-03-28T06:56:44.963Z,80.04
2019-03-28T06:59:13.668Z,79.52
2019-03-28T07:01:46.798Z,73.90
2019-03-28T07:04:21.824Z,72.36
2019-03-28T07:06:52.680Z,71.17
2019-03-28T07:09:26.155Z,69.82
2019-03-28T07:12:01.098Z,67.93
2019-03-28T07:14:31.858Z,73.76
2019-03-28T07:17:00.685Z,70.86
2019-03-28T07:19:29.324Z,74.58
2019-03-28T07:21:58.038Z,74.85
2019-03-28T07:24:26.690Z,67.38
2019-03-28T07:26:55.474Z,65.03
2019-03-28T07:29:27.554Z,65.26
2019-03-28T07:31:57.875Z,62.31
2019-03-28T07:34:26.664Z,60.18
2019-03-28T07:36:55.603Z,66.90
2019-03-28T07:39:32.037Z,59.52
2019-03-28T07:42:01.029Z,61.66
2019-03-28T07:44:29.847Z,64.26
2019-03-28T07:46:58.752Z,60.46
2019-03-28T07:49:30.798Z,59.92
2019-03-28T07:51:59.799Z,59.15
2019-03-28T07:54:28.893Z,58.29
2019-03-28T07:56:57.760Z,57.62
2019-03-28T07:59:26.501Z,52.17
2019-03-28T08:01:55.146Z,54.60
2019-03-28T08:04:23.681Z,51.25
2019-03-28T08:06:52.316Z,52.88
2019-03-28T08:09:20.863Z,52.42
2019-03-28T08:11:49.421Z,53.56
2019-03-28T08:14:18.052Z,51.10
2019-03-28T08:16:46.720Z,49.63
2019-03-28T08:19:15.350Z,49.62
2019-03-28T08:21:43.966Z,50.56
2019-03-28T08:24:12.662Z,49.46
2019-03-28T08:26:41.779Z,44.62
2019-03-28T08:29:10.622Z,44.62
2019-03-28T08:31:41.814Z,44.93
2019-03-28T08:34:12.334Z,44.93
2019-03-28T08:36:41.485Z,44.39
2019-03-28T08:39:10.410Z,44.61
2019-03-28T08:41:39.427Z,43.21
2019-03-28T08:44:08.238Z,43.11
2019-03-28T08:46:37.373Z,43.76
2019-03-28T08:49:07.230Z,45.40
2019-03-28T08:51:39.242Z,44.93
2019-03-28T08:54:08.160Z,48.17
2019-03-28T08:56:38.521Z,48.14
2019-03-28T08:59:09.836Z,50.67
2019-03-28T09:01:41.433Z,47.90
2019-03-28T09:04:10.184Z,50.29
2019-03-28T09:06:40.828Z,50.76
2019-03-28T09:09:12.179Z,51.93
2019-03-28T09:11:45.875Z,54.82
2019-03-28T09:14:14.658Z,53.86
2019-03-28T09:16:46.198Z,51.96
2019-03-28T09:19:14.868Z,51.13
2019-03-28T09:21:43.646Z,52.31
2019-03-28T09:24:12.409Z,51.42
2019-03-28T09:26:41.134Z,48.83
2019-03-28T09:29:09.883Z,49.97
2019-03-28T09:31:41.599Z,49.00
2019-03-28T09:34:10.430Z,49.97
2019-03-28T09:36:39.177Z,47.87
2019-03-28T09:39:10.256Z,45.35
2019-03-28T09:41:40.403Z,45.07
2019-03-28T09:44:09.108Z,46.76
2019-03-28T09:46:37.904Z,50.12
2019-03-28T09:49:06.606Z,49.98
2019-03-28T09:51:35.512Z,50.05
2019-03-28T09:54:04.258Z,50.54
2019-03-28T09:56:37.297Z,51.59
2019-03-28T09:59:06.028Z,49.92
2019-03-28T10:01:34.703Z,43.84
2019-03-28T10:04:06.291Z,41.68
2019-03-28T10:06:33.685Z,38.55
2019-03-28T10:09:02.360Z,38.73
2019-03-28T10:11:31.000Z,39.48
2019-03-28T10:13:59.618Z,46.31
2019-03-28T10:16:28.464Z,46.31
2019-03-28T10:18:57.099Z,46.90
2019-03-28T10:21:25.846Z,50.75
2019-03-28T10:23:54.475Z,51.71
2019-03-28T10:26:23.446Z,52.24
2019-03-28T10:28:55.261Z,51.72
2019-03-28T10:31:23.893Z,52.57
2019-03-28T10:33:52.615Z,54.79
2019-03-28T10:36:21.356Z,54.34
2019-03-28T10:38:50.153Z,55.61
2019-03-28T10:41:18.814Z,53.63
2019-03-28T10:43:47.548Z,53.93
2019-03-28T10:46:16.259Z,51.55
2019-03-28T10:48:44.932Z,51.73
2019-03-28T10:51:13.563Z,51.53
2019-03-28T10:53:42.267Z,48.58
2019-03-28T10:56:21.480Z,48.24
2019-03-28T10:58:41.361Z,47.58
2019-03-28T11:01:10.107Z,44.11
2019-03-28T11:03:38.820Z,38.28
2019-03-28T11:06:07.643Z,36.03
2019-03-28T11:08:36.750Z,37.58
2019-03-28T11:11:05.598Z,41.09
2019-03-28T11:13:34.623Z,40.38
2019-03-28T11:16:03.765Z,42.03
2019-03-28T11:18:32.950Z,45.64
2019-03-28T11:21:02.114Z,45.84
2019-03-28T11:23:31.162Z,45.47
2019-03-28T11:26:00.486Z,45.39
2019-03-28T11:28:29.770Z,44.26
2019-03-28T11:30:59.058Z,41.16
2019-03-28T11:33:28.181Z,35.83
2019-03-28T11:35:59.382Z,33.23
2019-03-28T11:38:30.865Z,31.57
2019-03-28T11:41:00.105Z,34.37
2019-03-28T11:43:31.219Z,36.27
2019-03-28T11:46:01.931Z,37.24
2019-03-28T11:48:31.595Z,37.29
2019-03-28T11:51:01.175Z,34.71
2019-03-28T11:53:30.028Z,34.66
2019-03-28T11:56:00.659Z,36.88
2019-03-28T11:58:29.467Z,38.46
2019-03-28T12:01:01.781Z,38.01
2019-03-28T12:03:36.402Z,39.48
2019-03-28T12:06:16.946Z,40.39
2019-03-28T12:08:46.135Z,37.61
2019-03-28T12:11:16.573Z,31.72
2019-03-28T12:13:45.507Z,31.16
2019-03-28T12:16:17.348Z,28.96
2019-03-28T12:18:46.202Z,26.21
2019-03-28T12:21:15.101Z,25.99
2019-03-28T12:23:44.018Z,24.41
2019-03-28T12:26:14.428Z,24.88
2019-03-28T12:28:43.327Z,25.92
2019-03-28T12:31:12.226Z,27.12
2019-03-28T12:33:43.777Z,28.06
2019-03-28T12:36:12.628Z,26.53
2019-03-28T12:38:41.479Z,26.15
2019-03-28T12:41:13.262Z,25.94
2019-03-28T12:43:42.160Z,25.63
2019-03-28T12:46:13.632Z,25.20
2019-03-28T12:48:42.735Z,22.68
2019-03-28T12:51:11.543Z,25.73
2019-03-28T12:53:43.660Z,29.65
2019-03-28T12:56:14.215Z,29.75
2019-03-28T12:58:45.736Z,32.82
2019-03-28T13:01:14.571Z,33.09
2019-03-28T13:03:45.733Z,30.71
2019-03-28T13:06:13.720Z,26.80
2019-03-28T13:08:42.379Z,24.38
2019-03-28T13:11:10.983Z,23.83
2019-03-28T13:13:39.632Z,21.78
2019-03-28T13:16:08.265Z,21.60
2019-03-28T13:18:36.864Z,21.31
2019-03-28T13:21:13.361Z,21.38
2019-03-28T13:23:35.866Z,21.63
2019-03-28T13:26:04.432Z,23.12
2019-03-28T13:28:33.033Z,22.62
2019-03-28T13:31:01.717Z,21.46
2019-03-28T13:33:30.280Z,21.03
2019-03-28T13:35:59.057Z,22.23
2019-03-28T13:38:27.815Z,21.48
2019-03-28T13:40:56.623Z,20.33
2019-03-28T13:43:25.508Z,22.43
2019-03-28T13:45:54.199Z,20.95
2019-03-28T13:48:23.015Z,21.39
2019-03-28T13:50:54.672Z,23.13
2019-03-28T13:53:22.381Z,22.87
2019-03-28T13:55:52.240Z,24.97
2019-03-28T13:58:21.183Z,27.86
2019-03-28T14:00:50.007Z,28.98
2019-03-28T14:03:18.771Z,29.22
2019-03-28T14:05:47.444Z,27.79
2019-03-28T14:08:16.229Z,28.56
2019-03-28T14:10:44.993Z,29.94
2019-03-28T14:13:13.741Z,29.98
2019-03-28T14:15:42.504Z,30.02
2019-03-28T14:18:11.249Z,30.36
2019-03-28T14:20:39.976Z,31.52
2019-03-28T14:23:08.780Z,32.76
2019-03-28T14:25:37.529Z,33.16
2019-03-28T14:28:06.261Z,32.93
2019-03-28T14:30:34.907Z,34.94
2019-03-28T14:33:11.178Z,33.72
2019-03-28T14:35:33.960Z,33.70
2019-03-28T14:38:02.595Z,33.77
2019-03-28T14:40:31.278Z,34.10
2019-03-28T14:42:59.851Z,33.64
2019-03-28T14:45:28.497Z,31.10
2019-03-28T14:47:57.125Z,27.29
2019-03-28T14:50:37.157Z,29.60
2019-03-28T14:53:06.225Z,30.61
2019-03-28T14:55:36.290Z,30.64
2019-03-28T14:58:06.901Z,30.95
2019-03-28T15:00:47.526Z,31.27
2019-03-28T15:03:25.844Z,29.73
2019-03-28T15:05:46.888Z,27.35
2019-03-28T15:08:15.598Z,26.39
2019-03-28T15:10:44.415Z,27.31
2019-03-28T15:13:13.174Z,27.05
2019-03-28T15:15:41.731Z,26.66
2019-03-28T15:18:10.400Z,26.63
2019-03-28T15:20:38.979Z,26.83
2019-03-28T15:23:07.603Z,27.32
2019-03-28T15:25:36.229Z,29.56
2019-03-28T15:28:04.896Z,31.26
2019-03-28T15:30:33.520Z,31.70
2019-03-28T15:33:02.206Z,32.06
2019-03-28T15:35:30.757Z,30.13
2019-03-28T15:37:59.391Z,29.91
2019-03-28T15:40:28.063Z,30.07
2019-03-28T15:42:56.703Z,27.92
2019-03-28T15:45:25.953Z,27.49
2019-03-28T15:47:54.562Z,27.52
2019-03-28T15:50:23.187Z,28.20
2019-03-28T15:52:51.782Z,28.37
2019-03-28T15:55:20.416Z,27.45
2019-03-28T15:57:49.065Z,27.54
2019-03-28T16:00:18.393Z,28.70
2019-03-28T16:02:47.322Z,28.26
2019-03-28T16:05:16.010Z,28.58
2019-03-28T16:07:44.577Z,29.44
2019-03-28T16:10:15.210Z,30.58
2019-03-28T16:12:43.972Z,31.57
2019-03-28T16:15:13.140Z,32.10
2019-03-28T16:17:41.766Z,33.33
2019-03-28T16:20:11.136Z,34.86
2019-03-28T16:22:39.687Z,36.63
2019-03-28T16:25:08.496Z,36.63
2019-03-28T16:27:37.038Z,37.42
2019-03-28T16:30:08.630Z,37.91
2019-03-28T16:32:37.260Z,38.37
2019-03-28T16:35:07.590Z,39.56
2019-03-28T16:37:36.200Z,40.15
2019-03-28T16:40:07.249Z,41.98
2019-03-28T16:42:35.796Z,42.03
2019-03-28T16:45:07.118Z,42.49
2019-03-28T16:47:35.747Z,42.81
2019-03-28T16:50:05.072Z,43.43
2019-03-28T16:52:33.627Z,44.07
2019-03-28T16:55:08.270Z,45.20
2019-03-28T16:57:36.944Z,46.60
2019-03-28T17:00:14.033Z,46.93
2019-03-28T17:02:42.707Z,48.02
2019-03-28T17:05:11.531Z,48.15
2019-03-28T17:07:40.165Z,48.83
2019-03-28T17:10:09.393Z,49.25
2019-03-28T17:12:37.929Z,50.46
2019-03-28T17:15:08.662Z,50.93
2019-03-28T17:17:38.481Z,49.66
2019-03-28T17:20:07.851Z,51.50
2019-03-28T17:22:36.478Z,53.87
2019-03-28T17:25:06.629Z,56.69
2019-03-28T17:27:35.178Z,56.31
2019-03-28T17:30:07.173Z,56.18
2019-03-28T17:32:36.750Z,60.89
2019-03-28T17:35:06.258Z,65.58
2019-03-28T17:37:40.929Z,67.44
2019-03-28T17:40:09.661Z,67.91
2019-03-28T17:42:41.022Z,69.39
2019-03-28T17:45:09.748Z,69.98
2019-03-28T17:47:38.458Z,77.39
2019-03-28T17:50:10.272Z,71.82
2019-03-28T17:52:38.959Z,69.69
2019-03-28T17:55:07.777Z,71.23
2019-03-28T17:57:36.579Z,73.73
2019-03-28T18:00:08.871Z,73.49
2019-03-28T18:02:37.574Z,73.56
2019-03-28T18:05:09.713Z,77.24
2019-03-28T18:07:37.524Z,76.36
2019-03-28T18:10:07.556Z,81.07
2019-03-28T18:12:36.197Z,78.49
2019-03-28T18:15:08.542Z,78.90
2019-03-28T18:17:37.219Z,78.24
2019-03-28T18:20:09.415Z,76.93
2019-03-28T18:22:38.163Z,77.00
2019-03-28T18:25:09.849Z,76.94
2019-03-28T18:27:38.480Z,77.66
2019-03-28T18:30:08.660Z,76.93
2019-03-28T18:32:39.435Z,75.53
2019-03-28T18:35:08.447Z,74.55
2019-03-28T18:37:37.199Z,75.51
2019-03-28T18:40:07.578Z,76.75
2019-03-28T18:42:36.219Z,77.65
2019-03-28T18:45:08.133Z,79.10
2019-03-28T18:47:36.783Z,79.73
2019-03-28T18:50:07.831Z,79.59
2019-03-28T18:52:36.459Z,80.95
2019-03-28T18:55:06.898Z,83.76
2019-03-28T18:57:38.240Z,83.60
2019-03-28T19:00:08.877Z,84.94
2019-03-28T19:02:37.524Z,84.33
2019-03-28T19:05:19.170Z,84.63
2019-03-28T19:07:37.011Z,84.75
2019-03-28T19:10:07.104Z,84.58
2019-03-28T19:12:35.775Z,83.88
2019-03-28T19:15:06.013Z,84.09
2019-03-28T19:17:34.648Z,84.75
2019-03-28T19:20:04.927Z,86.14
2019-03-28T19:22:33.562Z,85.62
2019-03-28T19:25:02.203Z,85.98
2019-03-28T19:27:30.954Z,90.63
2019-03-28T19:29:59.440Z,92.63
2019-03-28T19:32:29.863Z,94.81
2019-03-28T19:34:58.821Z,94.68
2019-03-28T19:37:29.251Z,93.82
2019-03-28T19:39:57.926Z,97.63
2019-03-28T19:42:26.557Z,94.90
2019-03-28T19:44:55.529Z,96.09
2019-03-28T19:47:24.164Z,100.00
2019-03-28T19:49:52.795Z,98.73
2019-03-28T19:52:21.433Z,95.53
2019-03-28T19:54:50.080Z,96.80
2019-03-28T19:57:21.761Z,97.66
2019-03-28T19:59:50.463Z,94.03
2019-03-28T20:02:19.843Z,96.28
2019-03-28T20:04:48.518Z,97.65
2019-03-28T20:07:21.746Z,100.00
2019-03-28T20:09:47.484Z,100.00
2019-03-28T20:12:16.120Z,100.00
2019-03-28T20:14:44.759Z,100.00
2019-03-28T20:17:13.409Z,100.00
2019-03-28T20:19:42.090Z,100.00
2019-03-28T20:22:10.725Z,100.00
2019-03-28T20:24:40.095Z,100.00
2019-03-28T20:27:09.405Z,97.76
2019-03-28T20:29:40.004Z,95.38
2019-03-28T20:32:09.795Z,91.85
2019-03-28T20:34:38.512Z,87.17
2019-03-28T20:37:08.730Z,87.34
2019-03-28T20:39:37.434Z,85.58
2019-03-28T20:42:06.078Z,84.79
2019-03-28T20:44:34.656Z,84.33
2019-03-28T20:47:03.279Z,85.60
2019-03-28T20:49:31.845Z,86.21
2019-03-28T20:52:00.522Z,86.23
2019-03-28T20:54:29.013Z,87.17
2019-03-28T20:56:58.028Z,86.98
2019-03-28T20:59:29.752Z,87.28
2019-03-28T21:01:58.392Z,86.09
2019-03-28T21:04:31.498Z,86.95
2019-03-28T21:06:58.772Z,86.43
2019-03-28T21:09:27.453Z,85.92
2019-03-28T21:11:58.807Z,85.54
2019-03-28T21:14:28.023Z,86.13
2019-03-28T21:16:58.318Z,86.21
2019-03-28T21:19:27.074Z,86.75
2019-03-28T21:21:55.752Z,86.82
2019-03-28T21:24:24.392Z,87.31
2019-03-28T21:26:53.066Z,87.48
2019-03-28T21:29:21.754Z,86.98
2019-03-28T21:31:51.900Z,86.37
2019-03-28T21:34:21.134Z,86.06
2019-03-28T21:36:49.842Z,84.88
2019-03-28T21:39:18.375Z,85.02
2019-03-28T21:41:47.005Z,84.92
2019-03-28T21:44:15.552Z,85.80
2019-03-28T21:46:44.127Z,86.24
2019-03-28T21:49:12.790Z,86.03
2019-03-28T21:51:41.275Z,85.50
2019-03-28T21:54:09.952Z,85.36
2019-03-28T21:56:41.299Z,84.80
2019-03-28T21:59:08.852Z,84.42
2019-03-28T22:01:40.490Z,85.44
2019-03-28T22:04:09.276Z,86.08
2019-03-28T22:06:43.191Z,86.12
2019-03-28T22:09:08.222Z,86.71
2019-03-28T22:11:39.545Z,86.30
2019-03-28T22:14:08.085Z,88.05
2019-03-28T22:16:43.858Z,87.95
2019-03-28T22:19:12.571Z,88.87
2019-03-28T22:21:41.192Z,89.79
2019-03-28T22:24:09.796Z,90.51
2019-03-28T22:26:38.501Z,89.85
2019-03-28T22:29:07.125Z,90.66
2019-03-28T22:31:35.773Z,91.94
2019-03-28T22:34:04.403Z,92.56
2019-03-28T22:36:32.965Z,94.09
2019-03-28T22:39:01.650Z,94.19
2019-03-28T22:41:30.317Z,95.68
2019-03-28T22:43:59.145Z,95.85
2019-03-28T22:46:27.718Z,96.91
2019-03-28T22:48:56.407Z,97.16
2019-03-28T22:51:25.045Z,98.38
2019-03-28T22:53:53.665Z,98.72
2019-03-28T22:56:22.938Z,98.16
2019-03-28T22:58:52.256Z,100.00
2019-03-28T23:01:22.253Z,100.00
2019-03-28T23:03:51.120Z,100.00
2019-03-28T23:06:20.084Z,100.00
2019-03-28T23:08:49.581Z,100.00
2019-03-28T23:11:18.538Z,100.00
2019-03-28T23:13:47.403Z,100.00
2019-03-28T23:16:16.665Z,100.00
2019-03-28T23:18:45.766Z,100.00
2019-03-28T23:21:15.790Z,100.00
2019-03-28T23:23:46.341Z,100.00
2019-03-28T23:26:15.230Z,100.00
2019-03-28T23:28:44.223Z,100.00
2019-03-28T23:31:13.779Z,100.00
2019-03-28T23:33:42.553Z,100.00
2019-03-28T23:36:11.445Z,100.00
2019-03-28T23:38:40.218Z,100.00
2019-03-28T23:41:09.113Z,100.00
2019-03-28T23:43:38.027Z,100.00
2019-03-28T23:46:06.927Z,100.00
2019-03-28T23:48:35.788Z,100.00
2019-03-28T23:51:05.064Z,100.00
2019-03-28T23:53:34.312Z,100.00
2019-03-28T23:56:05.445Z,100.00
2019-03-28T23:58:34.251Z,100.00
